Terminal Aerodrome Forecast
Issued by NWS Anchorage, AK

Home | Current Version | Previous Version | Text Only | Print | Product List | Glossary On
Versions: 1 2 3 4 5 6 7 8 9 10 11 12 13 14 15 16 17 18 19 20 21 22 23 24 25
000
FTAK31 PANC 221727
TAFANC
TAF
PANC 221727Z 2218/2324 15006KT P6SM SCT035 BKN080
     FM230000 01004KT P6SM VCSH FEW045 SCT080
     FM230600 01008KT P6SM SCT100=

USA.gov is the U.S. government's official web portal to all federal, state and local government web resources and services.